Time;durP1;ratioP1;P1;durP2;ratioP2;P2;SDS_P1;SDS_P2;PMS_P1;PMS_P2;Temp;Humidity;BMP_temperature;BMP_pressure;BME280_temperature;BME280_humidity;BME280_pressure;Samples;Min_cycle;Max_cycle;Signal;HPM_P1;HPM_P2
2023/05/04 00:01:20;;;;;;;10.05;7.13;;;8.40;94.20;;;;;;5073653;28;20201;-67
2023/05/04 00:03:48;;;;;;;9.50;8.57;;;8.30;93.90;;;;;;5073732;28;20197;-67
2023/05/04 00:06:17;;;;;;;11.55;8.25;;;8.40;94.10;;;;;;5073060;28;20190;-67
2023/05/04 00:08:44;;;;;;;10.00;7.85;;;8.40;94.50;;;;;;5073497;28;20204;-67
2023/05/04 00:11:13;;;;;;;10.07;8.38;;;8.30;95.20;;;;;;5073401;28;20670;-67
2023/05/04 00:13:40;;;;;;;12.05;8.88;;;8.20;95.80;;;;;;5073398;28;20221;-67
2023/05/04 00:16:08;;;;;;;9.88;8.20;;;8.10;95.90;;;;;;5071935;28;20229;-67
2023/05/04 00:18:35;;;;;;;8.70;7.80;;;8.10;96.20;;;;;;5072258;28;20190;-67
2023/05/04 00:21:02;;;;;;;10.80;8.00;;;8.10;96.60;;;;;;5073313;28;20232;-67
2023/05/04 00:23:30;;;;;;;10.57;8.25;;;8.10;96.10;;;;;;5073368;28;20305;-67
2023/05/04 00:25:59;;;;;;;11.68;8.50;;;8.10;96.10;;;;;;5072378;28;20186;-67
2023/05/04 00:28:28;;;;;;;9.60;7.18;;;8.10;96.50;;;;;;5073345;28;20224;-67
2023/05/04 00:30:55;;;;;;;14.18;9.75;;;8.10;96.60;;;;;;5073023;28;20204;-67
2023/05/04 00:33:23;;;;;;;10.35;7.47;;;8.10;96.80;;;;;;5073021;28;20196;-67
2023/05/04 00:35:50;;;;;;;9.15;6.55;;;8.10;96.60;;;;;;5072741;28;20638;-67
2023/05/04 00:38:18;;;;;;;9.15;6.95;;;8.00;95.40;;;;;;5073219;28;20540;-67
2023/05/04 00:40:45;;;;;;;8.88;7.45;;;8.00;94.60;;;;;;5072470;28;20190;-67
2023/05/04 00:43:12;;;;;;;8.73;7.82;;;7.90;94.30;;;;;;5072905;28;20214;-67
2023/05/04 00:45:41;;;;;;;8.30;7.25;;;7.90;94.20;;;;;;5071388;28;20185;-67
2023/05/04 00:48:09;;;;;;;8.50;6.78;;;7.80;94.20;;;;;;5072963;28;20194;-67
2023/05/04 00:50:36;;;;;;;8.15;7.07;;;7.80;94.30;;;;;;5072680;28;20272;-67
2023/05/04 00:53:09;;;;;;;9.15;7.00;;;7.70;94.10;;;;;;5073165;28;20194;-67
2023/05/04 00:55:39;;;;;;;10.45;7.28;;;7.70;94.40;;;;;;5071846;28;20189;-67
2023/05/04 00:58:08;;;;;;;6.90;6.20;;;7.70;94.80;;;;;;5072725;28;20197;-67
2023/05/04 01:00:35;;;;;;;8.65;6.38;;;7.60;95.00;;;;;;5072187;28;20193;-67
2023/05/04 01:03:04;;;;;;;9.48;6.75;;;7.60;95.40;;;;;;5072668;28;20275;-67
2023/05/04 01:05:37;;;;;;;9.60;7.45;;;7.60;95.00;;;;;;5072012;28;20722;-67
2023/05/04 01:08:09;;;;;;;10.65;7.28;;;7.50;95.00;;;;;;5072750;28;20204;-67
2023/05/04 01:10:47;;;;;;;8.10;6.00;;;7.50;95.20;;;;;;5072370;28;20196;-67
2023/05/04 01:13:16;;;;;;;9.15;8.10;;;7.40;95.20;;;;;;5072713;28;20212;-67
2023/05/04 01:15:43;;;;;;;10.65;8.80;;;7.40;95.40;;;;;;5071821;28;20236;-67
2023/05/04 01:18:12;;;;;;;11.20;7.43;;;7.30;95.70;;;;;;5072032;28;20186;-67
2023/05/04 01:20:39;;;;;;;9.57;6.88;;;7.30;95.70;;;;;;5072733;28;20239;-67
2023/05/04 01:23:09;;;;;;;10.40;7.68;;;7.30;95.50;;;;;;5072280;28;20216;-67
2023/05/04 01:25:45;;;;;;;10.60;8.15;;;7.30;95.30;;;;;;5071884;28;20659;-67
2023/05/04 01:28:18;;;;;;;9.07;7.57;;;7.30;95.60;;;;;;5072449;28;20190;-67
2023/05/04 01:30:48;;;;;;;10.77;7.20;;;7.20;95.70;;;;;;5076727;28;20632;-67
2023/05/04 01:33:17;;;;;;;7.25;6.55;;;7.20;95.30;;;;;;5076525;28;20533;-67
2023/05/04 01:35:44;;;;;;;7.57;6.82;;;7.20;95.00;;;;;;5075936;28;20186;-67
2023/05/04 01:38:13;;;;;;;7.43;6.60;;;7.20;94.90;;;;;;5076062;28;20636;-67
2023/05/04 01:40:40;;;;;;;6.75;6.05;;;7.20;95.00;;;;;;5076607;28;20190;-67
2023/05/04 01:43:07;;;;;;;7.18;6.10;;;7.10;94.80;;;;;;5076285;28;20253;-67
2023/05/04 01:45:35;;;;;;;7.25;5.50;;;7.10;94.90;;;;;;5076331;28;20194;-67
2023/05/04 01:48:02;;;;;;;7.80;6.85;;;7.10;94.80;;;;;;5075873;28;20194;-67
2023/05/04 01:50:30;;;;;;;12.85;7.70;;;7.00;94.30;;;;;;5076221;28;20209;-67
2023/05/04 01:52:57;;;;;;;9.82;8.05;;;7.00;94.90;;;;;;5075497;28;20185;-67
2023/05/04 01:55:26;;;;;;;8.73;7.57;;;6.90;95.70;;;;;;5075901;28;20189;-67
2023/05/04 01:57:53;;;;;;;13.63;7.35;;;6.90;95.80;;;;;;5076085;28;20189;-67
2023/05/04 02:00:20;;;;;;;12.52;9.50;;;6.90;96.00;;;;;;5075956;28;20186;-67
2023/05/04 02:02:47;;;;;;;10.70;8.25;;;6.90;96.00;;;;;;5075573;28;20219;-67
2023/05/04 02:05:15;;;;;;;11.90;8.73;;;6.90;96.20;;;;;;5075470;28;20190;-67
2023/05/04 02:07:42;;;;;;;9.93;8.40;;;6.80;96.10;;;;;;5075737;28;20605;-67
2023/05/04 02:10:10;;;;;;;10.00;8.32;;;6.80;96.20;;;;;;5075844;28;20198;-67
2023/05/04 02:12:38;;;;;;;11.32;8.70;;;6.90;96.20;;;;;;5075223;28;20235;-67
2023/05/04 02:15:07;;;;;;;9.63;8.07;;;6.80;96.00;;;;;;5075001;28;20702;-67
2023/05/04 02:17:35;;;;;;;9.25;7.80;;;6.70;95.90;;;;;;5075224;28;20186;-67
2023/05/04 02:20:03;;;;;;;8.50;6.80;;;6.70;96.00;;;;;;5075822;28;20575;-67
2023/05/04 02:22:30;;;;;;;7.82;6.95;;;6.70;95.70;;;;;;5075208;28;20614;-67
2023/05/04 02:24:57;;;;;;;8.65;6.78;;;6.70;95.30;;;;;;5075215;28;20239;-67
2023/05/04 02:27:24;;;;;;;9.98;7.13;;;6.70;94.90;;;;;;5075355;28;20247;-67
2023/05/04 02:29:53;;;;;;;11.48;8.68;;;6.60;95.10;;;;;;5075231;28;20198;-67
2023/05/04 02:32:20;;;;;;;9.90;8.90;;;6.60;95.00;;;;;;5074179;28;20239;-67
2023/05/04 02:34:48;;;;;;;13.02;8.63;;;6.60;94.90;;;;;;5074984;28;20194;-67
2023/05/04 02:37:18;;;;;;;10.02;8.20;;;6.50;94.70;;;;;;5074764;28;20193;-67
2023/05/04 02:39:45;;;;;;;13.05;7.80;;;6.50;94.50;;;;;;5075682;28;20186;-67
2023/05/04 02:42:12;;;;;;;11.02;7.88;;;6.40;94.70;;;;;;5073893;28;20186;-66
2023/05/04 02:44:40;;;;;;;11.48;8.90;;;6.40;94.90;;;;;;5075368;28;20189;-67
2023/05/04 02:47:09;;;;;;;11.10;9.45;;;6.40;94.90;;;;;;5074480;28;20214;-66
2023/05/04 02:49:36;;;;;;;11.23;8.63;;;6.40;95.20;;;;;;5075222;28;20671;-67
2023/05/04 02:52:04;;;;;;;11.82;9.15;;;6.30;95.70;;;;;;5074299;28;20185;-67
2023/05/04 02:54:31;;;;;;;11.20;8.27;;;6.30;96.10;;;;;;5074903;28;20193;-67
2023/05/04 02:56:58;;;;;;;11.60;9.07;;;6.30;96.20;;;;;;5074601;28;20186;-67
2023/05/04 02:59:26;;;;;;;14.95;11.00;;;6.30;96.10;;;;;;5074865;28;20189;-67
2023/05/04 03:01:53;;;;;;;15.32;11.32;;;6.30;96.30;;;;;;5074523;28;20186;-66
2023/05/04 03:04:21;;;;;;;16.27;12.77;;;6.30;96.70;;;;;;5075138;28;20314;-66
2023/05/04 03:06:49;;;;;;;14.73;11.95;;;6.30;96.70;;;;;;5074217;28;20556;-67
2023/05/04 03:09:16;;;;;;;13.52;9.25;;;6.30;96.90;;;;;;5074785;28;20196;-67
2023/05/04 03:11:43;;;;;;;12.38;10.13;;;6.30;97.00;;;;;;5074426;28;20231;-67
2023/05/04 03:14:10;;;;;;;11.40;9.60;;;6.20;97.20;;;;;;5074433;28;20251;-67
2023/05/04 03:16:38;;;;;;;9.55;8.10;;;6.20;97.50;;;;;;5073838;28;20221;-67
2023/05/04 03:19:05;;;;;;;13.93;10.00;;;6.20;97.70;;;;;;5074471;28;20200;-67
2023/05/04 03:21:34;;;;;;;13.23;9.70;;;6.20;97.70;;;;;;5073885;28;20193;-67
2023/05/04 03:24:01;;;;;;;12.95;9.07;;;6.10;97.80;;;;;;5074557;28;20317;-67
2023/05/04 03:26:37;;;;;;;10.38;8.10;;;6.10;97.90;;;;;;5073970;28;20267;-67
2023/05/04 03:29:05;;;;;;;10.65;8.45;;;6.10;97.80;;;;;;5074342;28;20205;-67
2023/05/04 03:31:32;;;;;;;10.48;7.88;;;6.00;97.40;;;;;;5073135;28;20192;-67
2023/05/04 03:33:59;;;;;;;9.48;7.32;;;6.00;97.20;;;;;;5074366;28;20636;-67
2023/05/04 03:36:26;;;;;;;15.07;10.10;;;6.00;96.90;;;;;;5073792;28;20244;-67
2023/05/04 03:38:56;;;;;;;13.80;10.35;;;6.00;96.80;;;;;;5074451;28;20284;-67
2023/05/04 03:41:23;;;;;;;11.40;9.30;;;5.90;97.40;;;;;;5073366;28;20240;-66
2023/05/04 03:43:50;;;;;;;11.85;9.68;;;5.90;97.90;;;;;;5073659;28;20241;-66
2023/05/04 03:46:17;;;;;;;11.98;10.20;;;5.90;98.40;;;;;;5073357;28;20648;-66
2023/05/04 03:48:45;;;;;;;10.85;9.13;;;5.90;98.50;;;;;;5073864;28;20198;-67
2023/05/04 03:51:12;;;;;;;12.50;9.63;;;5.90;98.70;;;;;;5072971;28;20193;-67
2023/05/04 03:53:40;;;;;;;12.15;8.93;;;5.80;98.90;;;;;;5073190;28;20228;-68
2023/05/04 03:56:09;;;;;;;11.80;9.82;;;5.80;98.80;;;;;;5072917;28;20182;-68
2023/05/04 03:58:36;;;;;;;11.38;10.07;;;5.80;98.70;;;;;;5073728;28;20648;-67
2023/05/04 04:01:03;;;;;;;10.43;8.90;;;5.90;98.50;;;;;;5073131;28;20613;-67
2023/05/04 04:03:31;;;;;;;9.18;7.97;;;5.80;98.10;;;;;;5073529;28;20283;-67
2023/05/04 04:06:06;;;;;;;10.98;8.18;;;5.80;97.60;;;;;;5072780;28;20186;-67
2023/05/04 04:08:34;;;;;;;11.15;8.18;;;5.80;97.30;;;;;;5073636;28;20190;-67
2023/05/04 04:11:01;;;;;;;11.07;9.10;;;5.80;97.10;;;;;;5072599;28;20893;-67
2023/05/04 04:13:30;;;;;;;10.77;8.55;;;5.80;96.80;;;;;;5073487;28;20186;-67
2023/05/04 04:15:57;;;;;;;10.90;8.48;;;5.80;97.10;;;;;;5072213;28;20635;-67
2023/05/04 04:18:28;;;;;;;10.77;8.07;;;5.80;97.30;;;;;;5073354;28;20289;-67
2023/05/04 04:20:55;;;;;;;9.73;8.35;;;5.90;97.40;;;;;;5072874;28;20192;-68
2023/05/04 04:23:22;;;;;;;10.63;8.60;;;5.90;97.50;;;;;;5073687;28;20572;-67
2023/05/04 04:25:50;;;;;;;13.38;9.85;;;6.00;97.40;;;;;;5072188;28;20186;-68
2023/05/04 04:28:17;;;;;;;11.00;8.45;;;6.00;97.40;;;;;;5073325;28;20198;-67
2023/05/04 04:30:47;;;;;;;10.43;8.55;;;6.10;97.30;;;;;;5071900;28;20617;-67
2023/05/04 04:33:15;;;;;;;11.25;8.85;;;6.10;97.20;;;;;;5073259;28;20201;-67
2023/05/04 04:35:43;;;;;;;10.75;8.52;;;6.00;97.40;;;;;;5071916;28;20243;-67
2023/05/04 04:38:10;;;;;;;11.25;8.60;;;6.10;97.50;;;;;;5073370;28;20190;-67
2023/05/04 04:40:38;;;;;;;13.25;9.82;;;6.10;97.30;;;;;;5070259;28;20181;-67
2023/05/04 04:43:05;;;;;;;11.63;9.70;;;6.10;96.90;;;;;;5072819;28;20209;-67
2023/05/04 04:45:32;;;;;;;12.38;8.20;;;6.10;96.80;;;;;;5085939;28;20208;-67
2023/05/04 04:48:02;;;;;;;10.02;8.50;;;6.00;97.30;;;;;;5073466;28;20185;-68
2023/05/04 04:50:31;;;;;;;10.13;8.63;;;6.10;97.40;;;;;;5072543;28;20686;-67
2023/05/04 04:52:58;;;;;;;10.07;8.82;;;6.20;97.40;;;;;;5073126;28;20194;-67
2023/05/04 04:55:26;;;;;;;15.70;8.60;;;6.20;97.20;;;;;;5068223;28;20269;-67
2023/05/04 04:57:54;;;;;;;12.55;9.93;;;6.20;97.70;;;;;;5072831;28;20232;-67
2023/05/04 05:00:23;;;;;;;11.77;9.07;;;6.20;98.00;;;;;;5075888;28;20188;-67
2023/05/04 05:02:50;;;;;;;12.07;10.52;;;6.20;98.70;;;;;;5089583;28;20238;-68
2023/05/04 05:05:19;;;;;;;12.98;10.50;;;6.30;99.20;;;;;;5079709;28;20182;-68
2023/05/04 05:07:48;;;;;;;11.75;9.90;;;6.40;99.50;;;;;;5072126;28;20583;-68
2023/05/04 05:10:18;;;;;;;14.52;10.50;;;6.60;99.70;;;;;;5071213;28;20275;-67
2023/05/04 05:12:45;;;;;;;13.93;10.27;;;6.70;99.60;;;;;;5067818;28;20311;-68
2023/05/04 05:15:13;;;;;;;13.43;10.73;;;6.90;99.80;;;;;;5070373;28;20359;-68
2023/05/04 05:17:40;;;;;;;11.75;10.02;;;7.00;99.90;;;;;;5087869;28;20192;-67
2023/05/04 05:20:10;;;;;;;14.25;11.10;;;7.20;99.90;;;;;;5082703;28;20185;-68
2023/05/04 05:22:39;;;;;;;14.50;11.80;;;7.30;99.90;;;;;;5072056;28;20189;-67
2023/05/04 05:25:07;;;;;;;12.65;11.40;;;7.40;99.90;;;;;;5071338;28;20309;-68
2023/05/04 05:27:35;;;;;;;13.95;11.20;;;7.60;99.90;;;;;;5070833;28;20521;-68
2023/05/04 05:30:05;;;;;;;13.73;10.65;;;7.70;99.90;;;;;;5067396;28;20587;-68
2023/05/04 05:32:33;;;;;;;13.38;10.15;;;7.90;99.90;;;;;;5071787;28;20185;-68
2023/05/04 05:35:00;;;;;;;16.65;12.18;;;8.00;99.90;;;;;;5070705;28;20190;-68
2023/05/04 05:37:27;;;;;;;14.68;11.60;;;8.10;99.90;;;;;;5071843;28;20190;-67
2023/05/04 05:39:57;;;;;;;18.20;12.70;;;8.20;99.90;;;;;;5071258;28;20606;-68
2023/05/04 05:42:35;;;;;;;14.45;11.65;;;8.40;99.90;;;;;;5067857;28;20213;-68
2023/05/04 05:45:14;;;;;;;13.45;11.82;;;8.50;99.90;;;;;;5070397;28;20213;-68
2023/05/04 05:47:44;;;;;;;11.88;10.55;;;8.70;99.90;;;;;;5072897;28;20599;-68
2023/05/04 05:50:17;;;;;;;13.10;10.63;;;8.80;99.80;;;;;;5069465;28;20280;-68
2023/05/04 05:52:47;;;;;;;11.02;9.82;;;8.90;99.60;;;;;;5069736;28;20197;-68
2023/05/04 05:55:16;;;;;;;11.23;9.48;;;9.00;99.40;;;;;;5069607;28;20182;-68
2023/05/04 05:57:43;;;;;;;11.35;9.50;;;9.20;99.30;;;;;;5063979;28;20684;-68
2023/05/04 06:00:21;;;;;;;11.05;9.85;;;9.30;99.30;;;;;;5071415;28;20204;-68
2023/05/04 06:02:48;;;;;;;11.65;8.98;;;9.40;99.30;;;;;;5076322;28;20212;-67
2023/05/04 06:05:15;;;;;;;9.90;8.65;;;9.50;99.10;;;;;;5071147;28;20233;-68
2023/05/04 06:07:51;;;;;;;10.13;8.00;;;9.70;99.20;;;;;;5076928;28;20202;-68
2023/05/04 06:10:19;;;;;;;10.43;9.10;;;9.80;99.10;;;;;;5073525;28;20562;-68
2023/05/04 06:12:58;;;;;;;10.45;9.15;;;9.90;99.00;;;;;;5069818;28;20197;-68
2023/05/04 06:15:28;;;;;;;10.68;9.32;;;10.10;98.40;;;;;;5070277;28;20229;-68
2023/05/04 06:18:00;;;;;;;11.18;9.20;;;10.20;98.70;;;;;;5076389;28;20285;-68
2023/05/04 06:20:28;;;;;;;11.48;9.88;;;10.30;98.20;;;;;;5073469;28;20194;-68
2023/05/04 06:22:58;;;;;;;11.10;8.75;;;10.50;98.20;;;;;;5074683;28;20204;-68
2023/05/04 06:25:26;;;;;;;8.77;7.85;;;10.70;98.30;;;;;;5076892;28;20225;-68
2023/05/04 06:27:54;;;;;;;12.00;9.40;;;10.80;98.00;;;;;;5076027;28;20197;-68
2023/05/04 06:30:24;;;;;;;9.80;8.15;;;10.90;97.70;;;;;;5072402;28;20186;-68
2023/05/04 06:32:56;;;;;;;10.55;7.88;;;11.10;97.50;;;;;;5076145;28;20231;-68
2023/05/04 06:35:40;;;;;;;12.10;8.23;;;11.20;97.40;;;;;;5070950;28;20190;-68
2023/05/04 06:38:11;;;;;;;8.88;7.97;;;11.30;97.20;;;;;;5072009;28;20274;-68
2023/05/04 06:40:40;;;;;;;8.82;7.80;;;11.50;97.20;;;;;;5077387;28;20251;-68
2023/05/04 06:43:08;;;;;;;11.02;7.63;;;11.70;96.70;;;;;;5072415;28;20193;-68
2023/05/04 06:45:38;;;;;;;9.60;8.35;;;11.90;96.20;;;;;;5074675;28;20595;-68
2023/05/04 06:48:07;;;;;;;9.45;8.50;;;12.00;95.70;;;;;;5077997;28;20288;-68
2023/05/04 06:50:38;;;;;;;7.32;6.53;;;12.20;95.30;;;;;;5072843;28;20198;-68
2023/05/04 06:53:07;;;;;;;8.70;6.80;;;12.30;94.90;;;;;;5073523;28;20204;-68
2023/05/04 06:55:35;;;;;;;10.80;8.03;;;12.40;94.80;;;;;;5072646;28;20515;-68
2023/05/04 06:58:04;;;;;;;9.90;6.90;;;12.50;94.70;;;;;;5076701;28;20447;-70
2023/05/04 07:00:31;;;;;;;8.70;7.30;;;12.70;94.40;;;;;;5080010;28;20444;-70
2023/05/04 07:03:05;;;;;;;8.83;7.27;;;12.90;94.00;;;;;;5073544;28;20807;-67
2023/05/04 07:05:35;;;;;;;8.17;6.93;;;13.00;93.50;;;;;;5072926;28;20479;-67
2023/05/04 07:08:03;;;;;;;8.60;6.60;;;13.20;93.30;;;;;;5073896;28;20448;-67
2023/05/04 07:10:34;;;;;;;7.73;6.40;;;13.30;92.40;;;;;;5073875;28;20447;-67
2023/05/04 07:13:02;;;;;;;8.50;7.33;;;13.50;92.00;;;;;;5078541;28;20848;-67
2023/05/04 07:15:39;;;;;;;9.37;7.17;;;13.70;91.90;;;;;;5073792;28;20533;-67
2023/05/04 07:18:06;;;;;;;8.40;6.70;;;13.80;92.10;;;;;;5077745;28;20493;-67
2023/05/04 07:20:35;;;;;;;10.97;7.47;;;14.00;91.50;;;;;;5078032;28;20517;-70
2023/05/04 07:23:03;;;;;;;10.13;7.33;;;14.20;91.20;;;;;;5073888;28;20483;-70
2023/05/04 07:25:31;;;;;;;7.93;6.97;;;14.30;90.60;;;;;;5073303;28;20892;-67
2023/05/04 07:27:59;;;;;;;7.73;6.00;;;14.40;90.00;;;;;;5075233;28;20451;-67
2023/05/04 07:30:27;;;;;;;6.37;5.63;;;14.50;88.70;;;;;;5075485;28;20447;-67
2023/05/04 07:32:58;;;;;;;7.10;6.40;;;14.70;88.40;;;;;;5077482;28;20471;-67
2023/05/04 07:35:28;;;;;;;9.17;7.57;;;14.90;88.70;;;;;;5074028;28;20505;-69
2023/05/04 07:38:00;;;;;;;9.00;7.27;;;15.00;87.30;;;;;;5073629;28;20490;-70
2023/05/04 07:40:28;;;;;;;8.87;6.70;;;15.20;85.70;;;;;;5073852;28;20439;-69
2023/05/04 07:43:00;;;;;;;8.33;6.70;;;15.30;85.20;;;;;;5077929;28;20490;-69
2023/05/04 07:45:38;;;;;;;6.83;5.83;;;15.50;84.70;;;;;;5073430;28;20575;-67
2023/05/04 07:48:08;;;;;;;8.37;6.33;;;15.70;84.70;;;;;;5073142;28;20478;-67
2023/05/04 07:50:36;;;;;;;8.70;6.23;;;15.90;84.30;;;;;;5073475;28;20494;-67
2023/05/04 07:53:05;;;;;;;9.10;6.70;;;16.00;80.40;;;;;;5073161;28;20498;-67
2023/05/04 07:55:37;;;;;;;8.37;6.80;;;16.10;80.50;;;;;;5072938;28;20440;-69
2023/05/04 07:58:10;;;;;;;8.30;6.80;;;16.30;79.50;;;;;;5077343;28;20451;-68
2023/05/04 08:00:42;;;;;;;6.70;6.00;;;16.50;79.60;;;;;;5072955;28;20546;-68
2023/05/04 08:03:11;;;;;;;7.83;6.30;;;16.70;79.60;;;;;;5072805;28;20497;-71
2023/05/04 08:05:38;;;;;;;6.50;5.80;;;16.90;78.70;;;;;;5073112;28;20480;-69
2023/05/04 08:08:05;;;;;;;6.67;5.97;;;17.20;75.90;;;;;;5072801;28;20444;-69
2023/05/04 08:10:37;;;;;;;7.13;5.70;;;17.30;74.30;;;;;;5081051;28;20488;-69
2023/05/04 08:13:04;;;;;;;10.77;5.77;;;17.50;74.80;;;;;;5073130;28;20493;-69
2023/05/04 08:15:37;;;;;;;9.23;5.87;;;17.70;75.10;;;;;;5081067;28;20510;-69
2023/05/04 08:18:05;;;;;;;7.20;5.50;;;17.90;73.00;;;;;;5076080;28;20439;-67
2023/05/04 08:20:36;;;;;;;7.30;5.80;;;18.00;72.60;;;;;;5073117;28;20436;-70
2023/05/04 08:23:06;;;;;;;6.70;6.00;;;18.20;72.30;;;;;;5074401;28;20420;-69
2023/05/04 08:25:40;;;;;;;8.50;7.60;;;18.40;73.50;;;;;;5073349;28;20488;-67
2023/05/04 08:28:17;;;;;;;6.77;5.50;;;18.50;73.10;;;;;;5074461;28;20838;-68
2023/05/04 08:30:52;;;;;;;5.00;4.50;;;18.70;72.00;;;;;;5076875;28;20449;-67
2023/05/04 08:33:19;;;;;;;4.80;3.53;;;18.90;70.80;;;;;;5073106;28;20531;-68
2023/05/04 08:35:54;;;;;;;4.30;3.70;;;19.00;71.20;;;;;;5072739;28;20964;-67
2023/05/04 08:38:24;;;;;;;3.03;2.33;;;19.20;68.60;;;;;;5076384;28;20840;-67
2023/05/04 08:40:55;;;;;;;4.40;3.13;;;19.30;63.80;;;;;;5075060;28;20484;-67
2023/05/04 08:43:23;;;;;;;4.40;2.30;;;19.40;64.30;;;;;;5076332;28;20859;-67
2023/05/04 08:45:51;;;;;;;5.97;3.23;;;19.40;59.20;;;;;;5077039;28;20592;-67
2023/05/04 08:48:21;;;;;;;5.20;2.90;;;19.50;59.60;;;;;;5071989;28;20456;-67
2023/05/04 08:50:51;;;;;;;3.50;2.77;;;19.50;58.40;;;;;;5070863;28;20512;-67
2023/05/04 08:53:22;;;;;;;3.90;2.40;;;19.60;57.80;;;;;;5076838;28;20522;-67
2023/05/04 08:55:55;;;;;;;3.43;2.57;;;19.60;57.70;;;;;;5072067;28;20976;-67
2023/05/04 08:58:27;;;;;;;3.20;2.37;;;19.70;58.10;;;;;;5071742;28;20856;-68
2023/05/04 09:00:57;;;;;;;4.20;3.10;;;19.80;57.00;;;;;;5080221;28;20472;-67
2023/05/04 09:03:25;;;;;;;4.77;3.13;;;19.90;57.70;;;;;;5072197;28;20451;-67
2023/05/04 09:05:55;;;;;;;3.80;2.73;;;20.00;56.20;;;;;;5072325;28;20838;-67
2023/05/04 09:08:25;;;;;;;3.50;2.80;;;20.20;57.90;;;;;;5072151;28;20481;-68
2023/05/04 09:10:52;;;;;;;3.20;2.60;;;20.30;56.20;;;;;;5075662;28;20914;-68
2023/05/04 09:13:19;;;;;;;3.60;2.53;;;20.40;56.50;;;;;;5072039;28;20468;-68
2023/05/04 09:15:55;;;;;;;3.47;2.17;;;20.50;54.00;;;;;;5071637;28;20471;-67
2023/05/04 09:18:22;;;;;;;4.13;2.67;;;20.50;54.20;;;;;;5071822;28;20445;-67
2023/05/04 09:20:55;;;;;;;4.00;2.57;;;20.60;54.20;;;;;;5072174;28;20781;-68
2023/05/04 09:23:27;;;;;;;3.57;2.70;;;20.70;53.70;;;;;;5072091;28;20444;-67
2023/05/04 09:25:56;;;;;;;3.47;2.50;;;20.80;53.60;;;;;;5071693;28;20989;-67
2023/05/04 09:28:35;;;;;;;4.30;2.53;;;20.90;54.20;;;;;;5071736;28;20435;-68
2023/05/04 09:31:06;;;;;;;4.30;2.70;;;21.10;53.10;;;;;;5072163;28;20444;-68
2023/05/04 09:33:40;;;;;;;2.87;1.97;;;21.10;53.10;;;;;;5072291;28;20444;-68
2023/05/04 09:36:14;;;;;;;3.40;2.60;;;21.20;53.20;;;;;;5068540;28;20894;-68
2023/05/04 09:38:44;;;;;;;3.20;2.40;;;21.30;51.90;;;;;;5072932;28;20435;-68
2023/05/04 09:41:11;;;;;;;3.33;2.37;;;21.40;50.70;;;;;;5071678;28;20436;-68
2023/05/04 09:43:39;;;;;;;4.37;2.43;;;21.40;51.70;;;;;;5072149;28;20454;-68
2023/05/04 09:46:17;;;;;;;2.83;2.00;;;21.60;51.10;;;;;;5074219;28;20487;-68
2023/05/04 09:48:59;;;;;;;9.63;2.47;;;21.70;51.30;;;;;;5068736;28;20435;-68
2023/05/04 09:51:29;;;;;;;3.10;1.90;;;21.90;52.10;;;;;;5073918;28;20444;-68
2023/05/04 09:54:02;;;;;;;4.00;2.70;;;22.00;51.10;;;;;;5075556;28;20465;-68
2023/05/04 09:56:41;;;;;;;3.83;2.40;;;22.20;48.80;;;;;;5075685;28;20451;-68
2023/05/04 09:59:11;;;;;;;2.80;1.90;;;22.30;49.40;;;;;;5075632;28;20432;-68
2023/05/04 10:01:40;;;;;;;3.33;2.07;;;22.40;49.00;;;;;;5075632;28;20858;-68
2023/05/04 10:04:07;;;;;;;5.57;2.53;;;22.40;48.00;;;;;;5078199;28;20472;-68
2023/05/04 10:06:34;;;;;;;3.17;2.50;;;22.50;48.20;;;;;;5076225;28;20571;-68
2023/05/04 10:09:07;;;;;;;3.70;2.50;;;22.60;48.20;;;;;;5074827;28;20858;-68
2023/05/04 10:11:35;;;;;;;3.67;2.17;;;22.80;48.10;;;;;;5077261;28;20451;-68
2023/05/04 10:14:04;;;;;;;3.13;2.53;;;22.90;48.50;;;;;;5075040;28;20463;-68
2023/05/04 10:16:42;;;;;;;3.83;2.10;;;23.00;47.80;;;;;;5079342;28;20536;-68
2023/05/04 10:19:24;;;;;;;2.60;1.67;;;23.10;47.60;;;;;;5074688;28;20528;-68
2023/05/04 10:22:03;;;;;;;3.40;2.30;;;23.20;47.60;;;;;;5076654;28;20446;-68
2023/05/04 10:24:49;;;;;;;4.87;2.50;;;23.40;47.60;;;;;;5078851;28;20530;-68
2023/05/04 10:27:18;;;;;;;4.70;2.27;;;23.50;47.70;;;;;;5073236;28;20557;-68
2023/05/04 10:29:50;;;;;;;3.00;2.10;;;23.60;45.90;;;;;;5077713;28;20542;-68
2023/05/04 10:32:18;;;;;;;3.33;2.43;;;23.70;45.50;;;;;;5079874;28;20512;-68
2023/05/04 10:34:46;;;;;;;3.73;2.20;;;23.80;44.70;;;;;;5075543;28;20483;-68
2023/05/04 10:37:19;;;;;;;3.40;2.40;;;24.00;45.40;;;;;;5080062;28;20468;-68
2023/05/04 10:39:55;;;;;;;5.40;2.53;;;24.00;44.40;;;;;;5086605;28;20826;-68
2023/05/04 10:42:22;;;;;;;3.93;2.07;;;24.10;43.90;;;;;;5084518;28;20444;-68
2023/05/04 10:44:51;;;;;;;2.97;1.80;;;24.10;44.20;;;;;;5077289;28;20439;-68
2023/05/04 10:47:29;;;;;;;3.17;2.47;;;24.20;43.50;;;;;;5075605;28;20440;-68
2023/05/04 10:50:04;;;;;;;4.00;2.77;;;24.30;44.40;;;;;;5080554;28;20462;-68
2023/05/04 10:52:47;;;;;;;3.20;2.10;;;24.40;44.00;;;;;;5086374;28;20451;-68
2023/05/04 10:55:16;;;;;;;3.13;2.17;;;24.50;42.70;;;;;;5075395;28;20851;-68
2023/05/04 10:57:51;;;;;;;5.23;2.13;;;24.60;42.90;;;;;;5074068;28;20451;-68
2023/05/04 11:00:19;;;;;;;5.67;1.97;;;24.60;42.70;;;;;;5074295;28;20451;-68
2023/05/04 11:02:47;;;;;;;4.50;2.20;;;24.70;42.30;;;;;;5074094;28;20510;-68
2023/05/04 11:05:18;;;;;;;3.00;1.77;;;24.80;41.50;;;;;;5076706;28;20909;-68
2023/05/04 11:07:51;;;;;;;3.70;2.40;;;24.80;40.40;;;;;;5085558;28;20492;-68
2023/05/04 11:10:24;;;;;;;3.37;2.23;;;24.90;40.50;;;;;;5075119;28;21312;-69
2023/05/04 11:12:52;;;;;;;3.10;2.03;;;24.90;41.40;;;;;;5074604;28;20452;-68
2023/05/04 11:15:23;;;;;;;3.30;1.97;;;25.00;41.20;;;;;;5073858;28;20776;-67
2023/05/04 11:17:52;;;;;;;3.40;2.20;;;25.10;40.90;;;;;;5075471;28;20440;-68
2023/05/04 11:20:23;;;;;;;3.80;2.40;;;25.10;38.60;;;;;;5078551;28;20444;-68
2023/05/04 11:22:51;;;;;;;4.10;1.83;;;25.10;40.90;;;;;;5074667;28;20460;-68
2023/05/04 11:25:28;;;;;;;3.23;1.93;;;25.20;40.40;;;;;;5074965;28;20534;-68
2023/05/04 11:27:55;;;;;;;4.30;2.20;;;25.20;40.20;;;;;;5073609;28;20534;-67
2023/05/04 11:30:29;;;;;;;4.20;2.10;;;25.30;40.00;;;;;;5075330;28;20489;-68
2023/05/04 11:32:59;;;;;;;2.70;1.87;;;25.30;40.50;;;;;;5073204;28;20521;-68
2023/05/04 11:35:26;;;;;;;2.80;2.00;;;25.30;39.70;;;;;;5077871;28;20448;-68
2023/05/04 11:37:54;;;;;;;3.10;2.20;;;25.20;39.00;;;;;;5089644;28;20529;-68
2023/05/04 11:40:23;;;;;;;3.17;2.00;;;25.30;40.50;;;;;;5094392;28;20439;-68
2023/05/04 11:42:54;;;;;;;3.10;1.80;;;25.30;39.00;;;;;;5094922;28;20820;-68
2023/05/04 11:45:23;;;;;;;3.17;1.93;;;25.30;39.60;;;;;;5094403;28;20482;-68
2023/05/04 11:47:55;;;;;;;3.20;2.23;;;25.20;38.90;;;;;;5094897;28;21028;-68
2023/05/04 11:50:22;;;;;;;3.53;2.20;;;25.20;37.90;;;;;;5094399;28;20435;-68
2023/05/04 11:53:23;;;;;;;3.60;2.33;;;25.20;39.30;;;;;;5094500;28;20439;-68
2023/05/04 11:55:53;;;;;;;3.10;2.30;;;25.30;40.20;;;;;;5093981;28;20521;-68
2023/05/04 11:58:25;;;;;;;2.83;1.97;;;25.30;39.70;;;;;;5094380;28;20435;-68
2023/05/04 12:00:56;;;;;;;3.20;2.70;;;25.30;40.50;;;;;;5094368;28;20439;-68
2023/05/04 12:03:26;;;;;;;3.27;2.27;;;25.30;38.90;;;;;;5094307;28;20518;-68
2023/05/04 12:05:55;;;;;;;3.17;2.17;;;25.40;38.30;;;;;;5094245;28;20818;-68
2023/05/04 12:08:24;;;;;;;2.73;2.10;;;25.40;38.60;;;;;;5094167;28;20437;-69
2023/05/04 12:11:08;;;;;;;5.57;2.00;;;25.30;37.00;;;;;;5093829;28;20488;-69
2023/05/04 12:13:37;;;;;;;3.00;1.90;;;25.30;36.20;;;;;;5093321;28;20786;-68
2023/05/04 12:16:11;;;;;;;2.63;1.80;;;25.30;37.60;;;;;;5093298;28;20475;-69
2023/05/04 12:18:39;;;;;;;2.90;1.80;;;25.40;38.00;;;;;;5093996;28;20481;-68
2023/05/04 12:21:10;;;;;;;3.30;2.10;;;25.40;37.60;;;;;;5094058;28;20857;-69
2023/05/04 12:23:37;;;;;;;3.87;1.80;;;25.40;38.10;;;;;;5094175;28;20439;-68
2023/05/04 12:26:05;;;;;;;4.20;2.20;;;25.50;37.80;;;;;;5093642;28;20575;-68
2023/05/04 12:28:33;;;;;;;4.30;1.70;;;25.40;36.40;;;;;;5093832;28;20492;-68
2023/05/04 12:31:01;;;;;;;3.10;1.80;;;25.50;36.30;;;;;;5093480;28;20518;-68
2023/05/04 12:33:28;;;;;;;4.57;2.70;;;25.50;37.10;;;;;;5093732;28;20534;-68
2023/05/04 12:35:55;;;;;;;14.60;6.20;;;25.50;36.30;;;;;;5093821;28;20435;-69
2023/05/04 12:38:23;;;;;;;3.10;1.70;;;25.60;36.10;;;;;;5093858;28;20831;-68
2023/05/04 12:40:51;;;;;;;5.07;2.10;;;25.60;35.90;;;;;;5093634;28;20441;-68
2023/05/04 12:43:22;;;;;;;4.50;2.03;;;25.60;34.50;;;;;;5093823;28;20482;-69
2023/05/04 12:45:49;;;;;;;13.20;6.03;;;25.50;32.90;;;;;;5093511;28;21011;-69
2023/05/04 12:48:19;;;;;;;3.73;2.40;;;25.40;33.70;;;;;;5093277;28;20532;-69
2023/05/04 12:50:47;;;;;;;2.93;2.20;;;25.20;30.90;;;;;;5093626;28;20443;-69
2023/05/04 12:53:14;;;;;;;2.87;1.70;;;25.20;33.40;;;;;;5093067;28;20439;-69
2023/05/04 12:55:41;;;;;;;3.30;2.17;;;25.20;35.30;;;;;;5089104;28;20443;-69
2023/05/04 12:58:08;;;;;;;2.60;1.80;;;25.20;34.60;;;;;;5066228;28;20444;-68
2023/05/04 13:00:36;;;;;;;3.67;1.80;;;25.20;33.80;;;;;;5072761;28;20427;-69